sensor_id;sensor_type;location;lat;lon;timestamp;temperature;humidity
36690;DHT22;22676;51.120;3.702;2024-02-04T00:00:28;23.30;48.60
36690;DHT22;22676;51.120;3.702;2024-02-04T00:02:54;23.30;48.60
36690;DHT22;22676;51.120;3.702;2024-02-04T00:05:20;23.30;48.60
36690;DHT22;22676;51.120;3.702;2024-02-04T00:07:46;23.30;48.70
36690;DHT22;22676;51.120;3.702;2024-02-04T00:10:12;23.30;48.70
36690;DHT22;22676;51.120;3.702;2024-02-04T00:12:38;23.30;48.80
36690;DHT22;22676;51.120;3.702;2024-02-04T00:15:04;23.30;48.70
36690;DHT22;22676;51.120;3.702;2024-02-04T00:17:30;23.30;48.70
36690;DHT22;22676;51.120;3.702;2024-02-04T00:19:58;23.30;48.70
36690;DHT22;22676;51.120;3.702;2024-02-04T00:22:24;23.30;48.70
36690;DHT22;22676;51.120;3.702;2024-02-04T00:24:50;23.30;48.80
36690;DHT22;22676;51.120;3.702;2024-02-04T00:27:16;23.30;48.70
36690;DHT22;22676;51.120;3.702;2024-02-04T00:29:42;23.30;48.80
36690;DHT22;22676;51.120;3.702;2024-02-04T00:32:08;23.30;48.80
36690;DHT22;22676;51.120;3.702;2024-02-04T00:34:33;23.30;49.30
36690;DHT22;22676;51.120;3.702;2024-02-04T00:36:59;23.30;48.70
36690;DHT22;22676;51.120;3.702;2024-02-04T00:39:25;23.30;48.80
36690;DHT22;22676;51.120;3.702;2024-02-04T00:41:51;23.30;48.80
36690;DHT22;22676;51.120;3.702;2024-02-04T00:44:17;23.30;48.80
36690;DHT22;22676;51.120;3.702;2024-02-04T00:46:43;23.30;48.80
36690;DHT22;22676;51.120;3.702;2024-02-04T00:49:09;23.30;48.80
36690;DHT22;22676;51.120;3.702;2024-02-04T00:51:34;23.20;48.80
36690;DHT22;22676;51.120;3.702;2024-02-04T00:54:00;23.30;48.90
36690;DHT22;22676;51.120;3.702;2024-02-04T00:56:26;23.30;48.90
36690;DHT22;22676;51.120;3.702;2024-02-04T00:58:51;23.30;48.70
36690;DHT22;22676;51.120;3.702;2024-02-04T01:01:17;23.30;48.60
36690;DHT22;22676;51.120;3.702;2024-02-04T01:03:44;23.30;48.70
36690;DHT22;22676;51.120;3.702;2024-02-04T01:06:10;23.30;48.70
36690;DHT22;22676;51.120;3.702;2024-02-04T01:08:36;23.30;48.70
36690;DHT22;22676;51.120;3.702;2024-02-04T01:11:05;23.30;48.70
36690;DHT22;22676;51.120;3.702;2024-02-04T01:13:31;23.30;48.80
36690;DHT22;22676;51.120;3.702;2024-02-04T01:15:57;23.30;48.80
36690;DHT22;22676;51.120;3.702;2024-02-04T01:18:22;23.30;48.80
36690;DHT22;22676;51.120;3.702;2024-02-04T01:20:48;23.30;48.70
36690;DHT22;22676;51.120;3.702;2024-02-04T01:23:14;23.30;48.60
36690;DHT22;22676;51.120;3.702;2024-02-04T01:25:43;23.30;48.60
36690;DHT22;22676;51.120;3.702;2024-02-04T01:28:08;23.30;48.60
36690;DHT22;22676;51.120;3.702;2024-02-04T01:30:34;23.30;48.50
36690;DHT22;22676;51.120;3.702;2024-02-04T01:33:00;23.30;48.40
36690;DHT22;22676;51.120;3.702;2024-02-04T01:35:25;23.30;48.40
36690;DHT22;22676;51.120;3.702;2024-02-04T01:37:51;23.30;48.40
36690;DHT22;22676;51.120;3.702;2024-02-04T01:40:16;23.30;48.40
36690;DHT22;22676;51.120;3.702;2024-02-04T01:42:42;23.20;48.40
36690;DHT22;22676;51.120;3.702;2024-02-04T01:45:09;23.20;48.50
36690;DHT22;22676;51.120;3.702;2024-02-04T01:47:34;23.20;48.50
36690;DHT22;22676;51.120;3.702;2024-02-04T01:50:00;23.10;48.50
36690;DHT22;22676;51.120;3.702;2024-02-04T01:52:27;23.10;48.60
36690;DHT22;22676;51.120;3.702;2024-02-04T01:54:53;23.10;48.70
36690;DHT22;22676;51.120;3.702;2024-02-04T01:57:19;23.10;48.70
36690;DHT22;22676;51.120;3.702;2024-02-04T01:59:45;23.00;48.60
36690;DHT22;22676;51.120;3.702;2024-02-04T02:02:12;23.00;48.80
36690;DHT22;22676;51.120;3.702;2024-02-04T02:04:38;22.90;48.90
36690;DHT22;22676;51.120;3.702;2024-02-04T02:07:04;22.90;49.00
36690;DHT22;22676;51.120;3.702;2024-02-04T02:09:33;22.90;48.90
36690;DHT22;22676;51.120;3.702;2024-02-04T02:12:09;22.90;48.90
36690;DHT22;22676;51.120;3.702;2024-02-04T02:14:41;22.90;49.00
36690;DHT22;22676;51.120;3.702;2024-02-04T02:17:13;22.80;49.00
36690;DHT22;22676;51.120;3.702;2024-02-04T02:19:52;22.80;49.10
36690;DHT22;22676;51.120;3.702;2024-02-04T02:22:28;22.80;49.10
36690;DHT22;22676;51.120;3.702;2024-02-04T02:24:56;22.70;49.10
36690;DHT22;22676;51.120;3.702;2024-02-04T02:27:22;22.80;49.10
36690;DHT22;22676;51.120;3.702;2024-02-04T02:29:48;22.70;49.10
36690;DHT22;22676;51.120;3.702;2024-02-04T02:32:14;22.70;49.10
36690;DHT22;22676;51.120;3.702;2024-02-04T02:34:40;22.70;49.20
36690;DHT22;22676;51.120;3.702;2024-02-04T02:37:46;22.70;49.20
36690;DHT22;22676;51.120;3.702;2024-02-04T02:40:23;22.70;49.20
36690;DHT22;22676;51.120;3.702;2024-02-04T02:42:49;22.70;49.20
36690;DHT22;22676;51.120;3.702;2024-02-04T02:45:16;22.60;49.20
36690;DHT22;22676;51.120;3.702;2024-02-04T02:47:44;22.70;49.30
36690;DHT22;22676;51.120;3.702;2024-02-04T02:50:11;22.60;49.30
36690;DHT22;22676;51.120;3.702;2024-02-04T02:52:37;22.60;49.20
36690;DHT22;22676;51.120;3.702;2024-02-04T02:55:03;22.60;49.30
36690;DHT22;22676;51.120;3.702;2024-02-04T02:57:29;22.60;49.20
36690;DHT22;22676;51.120;3.702;2024-02-04T02:59:54;22.50;49.80
36690;DHT22;22676;51.120;3.702;2024-02-04T03:02:20;22.60;49.30
36690;DHT22;22676;51.120;3.702;2024-02-04T03:04:45;22.50;49.30
36690;DHT22;22676;51.120;3.702;2024-02-04T03:07:11;22.60;49.50
36690;DHT22;22676;51.120;3.702;2024-02-04T03:09:36;22.50;49.40
36690;DHT22;22676;51.120;3.702;2024-02-04T03:12:02;22.50;49.40
36690;DHT22;22676;51.120;3.702;2024-02-04T03:14:28;22.50;49.40
36690;DHT22;22676;51.120;3.702;2024-02-04T03:16:53;22.50;49.40
36690;DHT22;22676;51.120;3.702;2024-02-04T03:19:19;22.50;49.40
36690;DHT22;22676;51.120;3.702;2024-02-04T03:21:45;22.50;49.40
36690;DHT22;22676;51.120;3.702;2024-02-04T03:24:12;22.40;49.60
36690;DHT22;22676;51.120;3.702;2024-02-04T03:26:37;22.40;49.40
36690;DHT22;22676;51.120;3.702;2024-02-04T03:29:03;22.40;49.40
36690;DHT22;22676;51.120;3.702;2024-02-04T03:31:30;22.40;49.40
36690;DHT22;22676;51.120;3.702;2024-02-04T03:33:56;22.40;49.40
36690;DHT22;22676;51.120;3.702;2024-02-04T03:36:24;22.40;49.50
36690;DHT22;22676;51.120;3.702;2024-02-04T03:38:53;22.40;49.40
36690;DHT22;22676;51.120;3.702;2024-02-04T03:41:19;22.40;49.40
36690;DHT22;22676;51.120;3.702;2024-02-04T03:43:44;22.40;49.50
36690;DHT22;22676;51.120;3.702;2024-02-04T03:46:14;22.40;49.50
36690;DHT22;22676;51.120;3.702;2024-02-04T03:48:40;22.40;49.50
36690;DHT22;22676;51.120;3.702;2024-02-04T03:51:06;22.40;49.50
36690;DHT22;22676;51.120;3.702;2024-02-04T03:53:31;22.40;49.50
36690;DHT22;22676;51.120;3.702;2024-02-04T03:55:57;22.40;49.50
36690;DHT22;22676;51.120;3.702;2024-02-04T03:58:23;22.30;49.40
36690;DHT22;22676;51.120;3.702;2024-02-04T04:00:55;22.40;49.40
36690;DHT22;22676;51.120;3.702;2024-02-04T04:03:21;22.30;49.40
36690;DHT22;22676;51.120;3.702;2024-02-04T04:05:47;22.30;49.50
36690;DHT22;22676;51.120;3.702;2024-02-04T04:08:13;22.30;49.60
36690;DHT22;22676;51.120;3.702;2024-02-04T04:10:38;22.30;49.60
36690;DHT22;22676;51.120;3.702;2024-02-04T04:13:04;22.30;49.50
36690;DHT22;22676;51.120;3.702;2024-02-04T04:15:30;22.30;49.50
36690;DHT22;22676;51.120;3.702;2024-02-04T04:17:55;22.30;49.60
36690;DHT22;22676;51.120;3.702;2024-02-04T04:20:21;22.30;49.60
36690;DHT22;22676;51.120;3.702;2024-02-04T04:22:46;22.30;49.60
36690;DHT22;22676;51.120;3.702;2024-02-04T04:25:12;22.30;49.50
36690;DHT22;22676;51.120;3.702;2024-02-04T04:27:39;22.30;49.50
36690;DHT22;22676;51.120;3.702;2024-02-04T04:30:05;22.30;49.50
36690;DHT22;22676;51.120;3.702;2024-02-04T04:32:31;22.30;49.50
36690;DHT22;22676;51.120;3.702;2024-02-04T04:34:57;22.30;49.50
36690;DHT22;22676;51.120;3.702;2024-02-04T04:37:23;22.20;49.50
36690;DHT22;22676;51.120;3.702;2024-02-04T04:39:49;22.30;49.60
36690;DHT22;22676;51.120;3.702;2024-02-04T04:42:14;22.20;49.50
36690;DHT22;22676;51.120;3.702;2024-02-04T04:44:40;22.30;49.50
36690;DHT22;22676;51.120;3.702;2024-02-04T04:47:06;22.20;49.50
36690;DHT22;22676;51.120;3.702;2024-02-04T04:49:31;22.20;49.50
36690;DHT22;22676;51.120;3.702;2024-02-04T04:51:57;22.20;49.50
36690;DHT22;22676;51.120;3.702;2024-02-04T04:54:23;22.20;49.50
36690;DHT22;22676;51.120;3.702;2024-02-04T04:56:48;22.20;49.50
36690;DHT22;22676;51.120;3.702;2024-02-04T04:59:15;22.20;49.50
36690;DHT22;22676;51.120;3.702;2024-02-04T05:01:50;22.20;49.50
36690;DHT22;22676;51.120;3.702;2024-02-04T05:04:16;22.20;49.50
36690;DHT22;22676;51.120;3.702;2024-02-04T05:06:44;22.20;49.60
36690;DHT22;22676;51.120;3.702;2024-02-04T05:09:09;22.20;49.50
36690;DHT22;22676;51.120;3.702;2024-02-04T05:11:35;22.20;49.50
36690;DHT22;22676;51.120;3.702;2024-02-04T05:14:01;22.10;49.50
36690;DHT22;22676;51.120;3.702;2024-02-04T05:16:26;22.20;49.50
36690;DHT22;22676;51.120;3.702;2024-02-04T05:18:52;22.20;49.50
36690;DHT22;22676;51.120;3.702;2024-02-04T05:21:18;22.10;49.50
36690;DHT22;22676;51.120;3.702;2024-02-04T05:23:43;22.10;49.50
36690;DHT22;22676;51.120;3.702;2024-02-04T05:26:09;22.10;49.50
36690;DHT22;22676;51.120;3.702;2024-02-04T05:28:34;22.10;49.50
36690;DHT22;22676;51.120;3.702;2024-02-04T05:31:01;22.20;49.60
36690;DHT22;22676;51.120;3.702;2024-02-04T05:33:27;22.10;49.40
36690;DHT22;22676;51.120;3.702;2024-02-04T05:35:53;22.10;49.50
36690;DHT22;22676;51.120;3.702;2024-02-04T05:38:18;22.20;49.50
36690;DHT22;22676;51.120;3.702;2024-02-04T05:40:44;22.10;49.40
36690;DHT22;22676;51.120;3.702;2024-02-04T05:43:10;22.20;49.40
36690;DHT22;22676;51.120;3.702;2024-02-04T05:45:37;22.20;49.50
36690;DHT22;22676;51.120;3.702;2024-02-04T05:48:04;22.20;49.50
36690;DHT22;22676;51.120;3.702;2024-02-04T05:50:30;22.20;49.40
36690;DHT22;22676;51.120;3.702;2024-02-04T05:52:56;22.20;49.40
36690;DHT22;22676;51.120;3.702;2024-02-04T05:55:21;22.10;49.40
36690;DHT22;22676;51.120;3.702;2024-02-04T05:57:47;22.20;49.30
36690;DHT22;22676;51.120;3.702;2024-02-04T06:00:13;22.20;49.30
36690;DHT22;22676;51.120;3.702;2024-02-04T06:02:39;22.10;49.30
36690;DHT22;22676;51.120;3.702;2024-02-04T06:05:05;22.10;49.30
36690;DHT22;22676;51.120;3.702;2024-02-04T06:07:31;22.10;49.30
36690;DHT22;22676;51.120;3.702;2024-02-04T06:09:56;22.10;49.30
36690;DHT22;22676;51.120;3.702;2024-02-04T06:12:22;22.10;49.90
36690;DHT22;22676;51.120;3.702;2024-02-04T06:14:48;22.10;49.30
36690;DHT22;22676;51.120;3.702;2024-02-04T06:17:14;22.10;49.30
36690;DHT22;22676;51.120;3.702;2024-02-04T06:19:39;22.10;49.30
36690;DHT22;22676;51.120;3.702;2024-02-04T06:22:06;22.10;49.20
36690;DHT22;22676;51.120;3.702;2024-02-04T06:24:31;22.10;49.30
36690;DHT22;22676;51.120;3.702;2024-02-04T06:26:57;22.10;49.30
36690;DHT22;22676;51.120;3.702;2024-02-04T06:29:22;22.10;49.30
36690;DHT22;22676;51.120;3.702;2024-02-04T06:31:48;22.10;49.70
36690;DHT22;22676;51.120;3.702;2024-02-04T06:34:14;22.10;49.30
36690;DHT22;22676;51.120;3.702;2024-02-04T06:36:43;22.10;49.30
36690;DHT22;22676;51.120;3.702;2024-02-04T06:39:09;22.20;49.20
36690;DHT22;22676;51.120;3.702;2024-02-04T06:41:35;22.30;49.00
36690;DHT22;22676;51.120;3.702;2024-02-04T06:44:03;22.40;48.90
36690;DHT22;22676;51.120;3.702;2024-02-04T06:46:29;22.40;48.70
36690;DHT22;22676;51.120;3.702;2024-02-04T06:48:55;22.50;48.50
36690;DHT22;22676;51.120;3.702;2024-02-04T06:51:20;22.50;48.40
36690;DHT22;22676;51.120;3.702;2024-02-04T06:53:46;22.60;48.20
36690;DHT22;22676;51.120;3.702;2024-02-04T06:56:12;22.70;48.10
36690;DHT22;22676;51.120;3.702;2024-02-04T06:58:38;22.80;48.00
36690;DHT22;22676;51.120;3.702;2024-02-04T07:01:04;22.80;47.80
36690;DHT22;22676;51.120;3.702;2024-02-04T07:03:30;22.80;47.70
36690;DHT22;22676;51.120;3.702;2024-02-04T07:05:57;22.90;47.70
36690;DHT22;22676;51.120;3.702;2024-02-04T07:08:23;23.00;48.20
36690;DHT22;22676;51.120;3.702;2024-02-04T07:10:48;23.00;47.50
36690;DHT22;22676;51.120;3.702;2024-02-04T07:13:14;23.10;47.40
36690;DHT22;22676;51.120;3.702;2024-02-04T07:15:40;23.10;47.30
36690;DHT22;22676;51.120;3.702;2024-02-04T07:18:06;23.20;47.20
36690;DHT22;22676;51.120;3.702;2024-02-04T07:20:31;23.30;47.20
36690;DHT22;22676;51.120;3.702;2024-02-04T07:22:57;23.30;47.60
36690;DHT22;22676;51.120;3.702;2024-02-04T07:25:22;23.40;47.00
36690;DHT22;22676;51.120;3.702;2024-02-04T07:27:48;23.50;47.60
36690;DHT22;22676;51.120;3.702;2024-02-04T07:30:14;23.50;47.40
36690;DHT22;22676;51.120;3.702;2024-02-04T07:32:40;23.60;46.80
36690;DHT22;22676;51.120;3.702;2024-02-04T07:35:06;23.60;46.60
36690;DHT22;22676;51.120;3.702;2024-02-04T07:37:36;23.70;46.60
36690;DHT22;22676;51.120;3.702;2024-02-04T07:40:02;23.70;46.50
36690;DHT22;22676;51.120;3.702;2024-02-04T07:42:31;23.80;46.50
36690;DHT22;22676;51.120;3.702;2024-02-04T07:44:57;23.80;46.40
36690;DHT22;22676;51.120;3.702;2024-02-04T07:47:22;23.80;46.30
36690;DHT22;22676;51.120;3.702;2024-02-04T07:49:48;23.80;46.30
36690;DHT22;22676;51.120;3.702;2024-02-04T07:52:14;23.80;46.50
36690;DHT22;22676;51.120;3.702;2024-02-04T07:54:40;23.70;46.50
36690;DHT22;22676;51.120;3.702;2024-02-04T07:57:05;23.70;46.60
36690;DHT22;22676;51.120;3.702;2024-02-04T07:59:31;23.60;46.40
36690;DHT22;22676;51.120;3.702;2024-02-04T08:01:57;23.60;47.20
36690;DHT22;22676;51.120;3.702;2024-02-04T08:04:22;23.50;46.80
36690;DHT22;22676;51.120;3.702;2024-02-04T08:06:48;23.50;46.90
36690;DHT22;22676;51.120;3.702;2024-02-04T08:09:14;23.40;47.00
36690;DHT22;22676;51.120;3.702;2024-02-04T08:11:40;23.50;47.30
36690;DHT22;22676;51.120;3.702;2024-02-04T08:14:05;23.40;47.40
36690;DHT22;22676;51.120;3.702;2024-02-04T08:16:31;23.40;47.50
36690;DHT22;22676;51.120;3.702;2024-02-04T08:18:57;23.50;47.60
36690;DHT22;22676;51.120;3.702;2024-02-04T08:21:23;23.40;47.70
36690;DHT22;22676;51.120;3.702;2024-02-04T08:23:49;23.50;48.00
36690;DHT22;22676;51.120;3.702;2024-02-04T08:26:14;23.50;48.10
36690;DHT22;22676;51.120;3.702;2024-02-04T08:28:40;23.40;48.20
36690;DHT22;22676;51.120;3.702;2024-02-04T08:31:05;23.50;48.30
36690;DHT22;22676;51.120;3.702;2024-02-04T08:33:31;23.40;48.40
36690;DHT22;22676;51.120;3.702;2024-02-04T08:35:57;23.50;48.50
36690;DHT22;22676;51.120;3.702;2024-02-04T08:38:22;23.50;48.50
36690;DHT22;22676;51.120;3.702;2024-02-04T08:40:48;23.40;48.60
36690;DHT22;22676;51.120;3.702;2024-02-04T08:43:14;23.50;48.80
36690;DHT22;22676;51.120;3.702;2024-02-04T08:45:39;23.40;48.70
36690;DHT22;22676;51.120;3.702;2024-02-04T08:48:05;23.50;48.80
36690;DHT22;22676;51.120;3.702;2024-02-04T08:50:31;23.40;48.60
36690;DHT22;22676;51.120;3.702;2024-02-04T08:52:57;23.30;48.80
36690;DHT22;22676;51.120;3.702;2024-02-04T08:55:22;23.30;49.00
36690;DHT22;22676;51.120;3.702;2024-02-04T08:57:48;23.30;48.70
36690;DHT22;22676;51.120;3.702;2024-02-04T09:00:14;23.30;48.50
36690;DHT22;22676;51.120;3.702;2024-02-04T09:02:41;23.30;48.50
36690;DHT22;22676;51.120;3.702;2024-02-04T09:05:07;23.30;48.60
36690;DHT22;22676;51.120;3.702;2024-02-04T09:07:33;23.30;48.60
36690;DHT22;22676;51.120;3.702;2024-02-04T09:09:58;23.30;48.60
36690;DHT22;22676;51.120;3.702;2024-02-04T09:12:24;23.30;48.80
36690;DHT22;22676;51.120;3.702;2024-02-04T09:14:49;23.30;48.80
36690;DHT22;22676;51.120;3.702;2024-02-04T09:17:15;23.30;49.10
36690;DHT22;22676;51.120;3.702;2024-02-04T09:19:41;23.30;49.50
36690;DHT22;22676;51.120;3.702;2024-02-04T09:22:06;23.20;48.90
36690;DHT22;22676;51.120;3.702;2024-02-04T09:24:32;23.20;49.00
36690;DHT22;22676;51.120;3.702;2024-02-04T09:26:58;23.20;49.10
36690;DHT22;22676;51.120;3.702;2024-02-04T09:29:23;23.20;49.10
36690;DHT22;22676;51.120;3.702;2024-02-04T09:31:49;23.20;49.10
36690;DHT22;22676;51.120;3.702;2024-02-04T09:34:19;23.20;49.10
36690;DHT22;22676;51.120;3.702;2024-02-04T09:36:45;23.20;49.50
36690;DHT22;22676;51.120;3.702;2024-02-04T09:39:10;23.20;49.60
36690;DHT22;22676;51.120;3.702;2024-02-04T09:41:36;23.20;49.70
36690;DHT22;22676;51.120;3.702;2024-02-04T09:44:02;23.20;49.90
36690;DHT22;22676;51.120;3.702;2024-02-04T09:46:29;23.20;50.10
36690;DHT22;22676;51.120;3.702;2024-02-04T09:48:55;23.20;50.40
36690;DHT22;22676;51.120;3.702;2024-02-04T09:51:21;23.20;51.10
36690;DHT22;22676;51.120;3.702;2024-02-04T09:53:51;23.20;51.30
36690;DHT22;22676;51.120;3.702;2024-02-04T09:56:18;23.20;51.60
36690;DHT22;22676;51.120;3.702;2024-02-04T09:58:44;23.20;52.10
36690;DHT22;22676;51.120;3.702;2024-02-04T10:01:10;23.20;52.20
36690;DHT22;22676;51.120;3.702;2024-02-04T10:03:37;23.10;52.20
36690;DHT22;22676;51.120;3.702;2024-02-04T10:06:03;23.10;52.60
36690;DHT22;22676;51.120;3.702;2024-02-04T10:08:29;23.00;53.10
36690;DHT22;22676;51.120;3.702;2024-02-04T10:10:54;23.00;53.30
36690;DHT22;22676;51.120;3.702;2024-02-04T10:13:20;23.00;52.60
36690;DHT22;22676;51.120;3.702;2024-02-04T10:15:51;23.00;54.10
36690;DHT22;22676;51.120;3.702;2024-02-04T10:18:17;23.00;53.10
36690;DHT22;22676;51.120;3.702;2024-02-04T10:20:43;22.90;53.40
36690;DHT22;22676;51.120;3.702;2024-02-04T10:23:09;22.90;53.10
36690;DHT22;22676;51.120;3.702;2024-02-04T10:25:35;22.80;52.50
36690;DHT22;22676;51.120;3.702;2024-02-04T10:28:00;22.80;53.30
36690;DHT22;22676;51.120;3.702;2024-02-04T10:30:26;22.80;53.40
36690;DHT22;22676;51.120;3.702;2024-02-04T10:32:52;22.70;53.60
36690;DHT22;22676;51.120;3.702;2024-02-04T10:35:20;22.70;53.40
36690;DHT22;22676;51.120;3.702;2024-02-04T10:37:51;22.70;53.30
36690;DHT22;22676;51.120;3.702;2024-02-04T10:40:18;22.70;54.00
36690;DHT22;22676;51.120;3.702;2024-02-04T10:42:44;22.70;54.10
36690;DHT22;22676;51.120;3.702;2024-02-04T10:45:10;22.70;54.20
36690;DHT22;22676;51.120;3.702;2024-02-04T10:47:40;22.60;54.30
36690;DHT22;22676;51.120;3.702;2024-02-04T10:50:06;22.60;54.80
36690;DHT22;22676;51.120;3.702;2024-02-04T10:52:38;22.60;54.80
36690;DHT22;22676;51.120;3.702;2024-02-04T10:55:11;22.60;55.00
36690;DHT22;22676;51.120;3.702;2024-02-04T10:57:38;22.50;54.60
36690;DHT22;22676;51.120;3.702;2024-02-04T11:00:05;22.50;53.80
36690;DHT22;22676;51.120;3.702;2024-02-04T11:02:38;22.50;53.70
36690;DHT22;22676;51.120;3.702;2024-02-04T11:05:05;22.50;54.50
36690;DHT22;22676;51.120;3.702;2024-02-04T11:07:34;22.50;54.60
36690;DHT22;22676;51.120;3.702;2024-02-04T11:10:01;22.50;54.50
36690;DHT22;22676;51.120;3.702;2024-02-04T11:12:29;22.50;54.60
36690;DHT22;22676;51.120;3.702;2024-02-04T11:15:00;22.40;54.90
36690;DHT22;22676;51.120;3.702;2024-02-04T11:23:23;22.40;55.30
36690;DHT22;22676;51.120;3.702;2024-02-04T11:25:56;22.40;54.40
36690;DHT22;22676;51.120;3.702;2024-02-04T11:28:53;22.40;54.70
36690;DHT22;22676;51.120;3.702;2024-02-04T11:31:19;22.50;55.00
36690;DHT22;22676;51.120;3.702;2024-02-04T11:33:45;22.50;55.50
36690;DHT22;22676;51.120;3.702;2024-02-04T11:36:14;22.50;55.40
36690;DHT22;22676;51.120;3.702;2024-02-04T11:38:41;22.60;55.00
36690;DHT22;22676;51.120;3.702;2024-02-04T11:41:07;22.60;55.50
36690;DHT22;22676;51.120;3.702;2024-02-04T11:43:34;22.60;55.10
36690;DHT22;22676;51.120;3.702;2024-02-04T11:46:02;22.60;55.00
36690;DHT22;22676;51.120;3.702;2024-02-04T11:48:30;22.70;55.00
36690;DHT22;22676;51.120;3.702;2024-02-04T11:50:58;22.70;55.10
36690;DHT22;22676;51.120;3.702;2024-02-04T11:53:24;22.70;54.80
36690;DHT22;22676;51.120;3.702;2024-02-04T11:55:52;22.70;54.60
36690;DHT22;22676;51.120;3.702;2024-02-04T11:58:18;22.70;54.90
36690;DHT22;22676;51.120;3.702;2024-02-04T12:00:45;22.70;54.70
36690;DHT22;22676;51.120;3.702;2024-02-04T12:03:11;22.70;54.20
36690;DHT22;22676;51.120;3.702;2024-02-04T12:05:37;22.80;54.60
36690;DHT22;22676;51.120;3.702;2024-02-04T12:08:07;22.80;54.90
36690;DHT22;22676;51.120;3.702;2024-02-04T12:10:35;22.80;54.80
36690;DHT22;22676;51.120;3.702;2024-02-04T12:13:05;22.90;54.70
36690;DHT22;22676;51.120;3.702;2024-02-04T12:15:34;22.90;54.60
36690;DHT22;22676;51.120;3.702;2024-02-04T12:18:08;22.90;55.00
36690;DHT22;22676;51.120;3.702;2024-02-04T12:20:34;22.90;55.50
36690;DHT22;22676;51.120;3.702;2024-02-04T12:23:02;22.90;54.70
36690;DHT22;22676;51.120;3.702;2024-02-04T12:25:28;23.00;54.90
36690;DHT22;22676;51.120;3.702;2024-02-04T12:28:00;22.90;54.70
36690;DHT22;22676;51.120;3.702;2024-02-04T12:30:29;23.00;54.80
36690;DHT22;22676;51.120;3.702;2024-02-04T12:32:59;23.00;54.80
36690;DHT22;22676;51.120;3.702;2024-02-04T12:35:25;23.00;55.00
36690;DHT22;22676;51.120;3.702;2024-02-04T12:37:56;23.00;55.10
36690;DHT22;22676;51.120;3.702;2024-02-04T12:40:30;23.00;55.00
36690;DHT22;22676;51.120;3.702;2024-02-04T12:43:00;23.10;54.70
36690;DHT22;22676;51.120;3.702;2024-02-04T12:45:27;23.00;54.80
36690;DHT22;22676;51.120;3.702;2024-02-04T12:47:54;23.10;55.10
36690;DHT22;22676;51.120;3.702;2024-02-04T12:50:21;23.00;55.20
36690;DHT22;22676;51.120;3.702;2024-02-04T12:52:48;23.00;54.90
36690;DHT22;22676;51.120;3.702;2024-02-04T12:55:22;23.00;55.20
36690;DHT22;22676;51.120;3.702;2024-02-04T12:57:49;23.00;55.40
36690;DHT22;22676;51.120;3.702;2024-02-04T13:00:18;23.00;55.10
36690;DHT22;22676;51.120;3.702;2024-02-04T13:02:44;23.00;54.80
36690;DHT22;22676;51.120;3.702;2024-02-04T13:05:09;22.90;54.00
36690;DHT22;22676;51.120;3.702;2024-02-04T13:07:36;22.90;55.00
36690;DHT22;22676;51.120;3.702;2024-02-04T13:10:02;22.90;54.90
36690;DHT22;22676;51.120;3.702;2024-02-04T13:12:28;22.90;54.90
36690;DHT22;22676;51.120;3.702;2024-02-04T13:14:53;22.90;54.70
36690;DHT22;22676;51.120;3.702;2024-02-04T13:17:19;22.80;54.60
36690;DHT22;22676;51.120;3.702;2024-02-04T13:19:45;22.90;54.40
36690;DHT22;22676;51.120;3.702;2024-02-04T13:22:10;22.90;54.70
36690;DHT22;22676;51.120;3.702;2024-02-04T13:24:37;22.90;54.80
36690;DHT22;22676;51.120;3.702;2024-02-04T13:27:02;23.00;54.70
36690;DHT22;22676;51.120;3.702;2024-02-04T13:29:29;23.00;54.80
36690;DHT22;22676;51.120;3.702;2024-02-04T13:31:55;23.00;54.60
36690;DHT22;22676;51.120;3.702;2024-02-04T13:34:21;23.00;54.70
36690;DHT22;22676;51.120;3.702;2024-02-04T13:36:46;23.00;54.80
36690;DHT22;22676;51.120;3.702;2024-02-04T13:39:12;23.00;54.70
36690;DHT22;22676;51.120;3.702;2024-02-04T13:41:39;23.00;55.00
36690;DHT22;22676;51.120;3.702;2024-02-04T13:44:04;23.10;54.80
36690;DHT22;22676;51.120;3.702;2024-02-04T13:46:30;23.10;54.90
36690;DHT22;22676;51.120;3.702;2024-02-04T13:48:56;23.10;55.10
36690;DHT22;22676;51.120;3.702;2024-02-04T13:51:22;23.10;54.90
36690;DHT22;22676;51.120;3.702;2024-02-04T13:53:47;23.20;55.00
36690;DHT22;22676;51.120;3.702;2024-02-04T13:56:13;23.20;54.80
36690;DHT22;22676;51.120;3.702;2024-02-04T13:58:39;23.20;54.20
36690;DHT22;22676;51.120;3.702;2024-02-04T14:01:04;23.30;53.80
36690;DHT22;22676;51.120;3.702;2024-02-04T14:03:31;23.30;54.10
36690;DHT22;22676;51.120;3.702;2024-02-04T14:05:56;23.30;54.00
36690;DHT22;22676;51.120;3.702;2024-02-04T14:08:22;23.40;54.00
36690;DHT22;22676;51.120;3.702;2024-02-04T14:10:48;23.50;54.60
36690;DHT22;22676;51.120;3.702;2024-02-04T14:13:13;23.50;54.60
36690;DHT22;22676;51.120;3.702;2024-02-04T14:15:39;23.60;54.40
36690;DHT22;22676;51.120;3.702;2024-02-04T14:18:05;23.60;54.50
36690;DHT22;22676;51.120;3.702;2024-02-04T14:20:31;23.70;54.70
36690;DHT22;22676;51.120;3.702;2024-02-04T14:22:57;23.70;54.30
36690;DHT22;22676;51.120;3.702;2024-02-04T14:25:23;23.70;54.30
36690;DHT22;22676;51.120;3.702;2024-02-04T14:27:50;23.80;54.30
36690;DHT22;22676;51.120;3.702;2024-02-04T14:30:15;23.90;54.10
36690;DHT22;22676;51.120;3.702;2024-02-04T14:32:41;23.90;53.80
36690;DHT22;22676;51.120;3.702;2024-02-04T14:35:08;24.00;53.80
36690;DHT22;22676;51.120;3.702;2024-02-04T14:37:35;24.00;53.90
36690;DHT22;22676;51.120;3.702;2024-02-04T14:40:01;24.10;53.80
36690;DHT22;22676;51.120;3.702;2024-02-04T14:42:29;24.10;53.50
36690;DHT22;22676;51.120;3.702;2024-02-04T14:44:54;24.10;53.40
36690;DHT22;22676;51.120;3.702;2024-02-04T14:47:20;24.20;52.60
36690;DHT22;22676;51.120;3.702;2024-02-04T14:49:46;24.20;52.80
36690;DHT22;22676;51.120;3.702;2024-02-04T14:52:11;24.20;52.70
36690;DHT22;22676;51.120;3.702;2024-02-04T14:54:37;24.20;52.70
36690;DHT22;22676;51.120;3.702;2024-02-04T14:57:04;24.20;52.20
36690;DHT22;22676;51.120;3.702;2024-02-04T14:59:30;24.20;52.00
36690;DHT22;22676;51.120;3.702;2024-02-04T15:01:58;24.10;51.90
36690;DHT22;22676;51.120;3.702;2024-02-04T15:04:24;24.10;51.60
36690;DHT22;22676;51.120;3.702;2024-02-04T15:06:50;24.20;51.60
36690;DHT22;22676;51.120;3.702;2024-02-04T15:09:15;24.20;52.00
36690;DHT22;22676;51.120;3.702;2024-02-04T15:11:41;24.20;52.70
36690;DHT22;22676;51.120;3.702;2024-02-04T15:14:07;24.20;52.10
36690;DHT22;22676;51.120;3.702;2024-02-04T15:16:34;24.30;52.00
36690;DHT22;22676;51.120;3.702;2024-02-04T15:19:04;24.40;51.80
36690;DHT22;22676;51.120;3.702;2024-02-04T15:21:30;24.40;51.60
36690;DHT22;22676;51.120;3.702;2024-02-04T15:23:56;24.50;51.60
36690;DHT22;22676;51.120;3.702;2024-02-04T15:26:21;24.40;51.60
36690;DHT22;22676;51.120;3.702;2024-02-04T15:28:50;24.50;51.70
36690;DHT22;22676;51.120;3.702;2024-02-04T15:31:17;24.50;51.70